Time;durP1;ratioP1;P1;durP2;ratioP2;P2;SDS_P1;SDS_P2;PMS_P1;PMS_P2;Temp;Humidity;BMP_temperature;BMP_pressure;BME280_temperature;BME280_humidity;BME280_pressure;Samples;Min_cycle;Max_cycle;Signal;HPM_P1;HPM_P2
2021/03/06 00:01:19;;;;;;;6.50;4.57;;;;;;;-0.04;63.43;99393.13;5006629;28;20297;-82
2021/03/06 00:03:46;;;;;;;9.57;4.87;;;;;;;-0.10;63.49;99388.72;5006419;28;20215;-82
2021/03/06 00:06:12;;;;;;;6.93;5.03;;;;;;;-0.17;63.84;99396.25;5006264;28;20282;-82
2021/03/06 00:08:39;;;;;;;5.77;4.87;;;;;;;-0.25;63.94;99388.38;5001271;28;20211;-81
2021/03/06 00:11:05;;;;;;;8.57;4.03;;;;;;;-0.22;64.14;99391.88;5005833;28;20223;-81
2021/03/06 00:13:34;;;;;;;6.50;4.17;;;;;;;-0.21;64.52;99401.28;5006237;28;20218;-82
2021/03/06 00:16:01;;;;;;;6.33;3.57;;;;;;;-0.23;63.85;99395.25;5006431;28;20234;-81
2021/03/06 00:18:28;;;;;;;8.83;4.17;;;;;;;-0.29;64.19;99392.53;5004599;28;20249;-80
2021/03/06 00:20:54;;;;;;;7.43;4.10;;;;;;;-0.33;64.18;99388.19;5002191;28;20224;-82
2021/03/06 00:23:20;;;;;;;7.43;4.27;;;;;;;-0.41;64.74;99397.34;5002411;28;20389;-81
2021/03/06 00:25:46;;;;;;;5.10;3.33;;;;;;;-0.50;65.37;99394.56;5004360;28;20207;-81
2021/03/06 00:28:12;;;;;;;5.53;3.50;;;;;;;-0.61;65.41;99402.84;5004389;28;20226;-81
2021/03/06 00:30:38;;;;;;;3.87;3.07;;;;;;;-0.73;66.07;99410.22;5004821;28;20709;-81
2021/03/06 00:33:05;;;;;;;5.57;3.57;;;;;;;-0.75;65.70;99410.97;5006100;28;20211;-81
2021/03/06 00:35:32;;;;;;;7.20;3.57;;;;;;;-0.74;65.86;99408.47;5007513;28;20231;-80
2021/03/06 00:37:59;;;;;;;7.00;3.80;;;;;;;-0.77;65.85;99410.97;5008177;28;20238;-80
2021/03/06 00:40:25;;;;;;;7.83;4.30;;;;;;;-0.74;65.59;99417.84;5008055;28;20204;-82
2021/03/06 00:42:51;;;;;;;5.90;3.80;;;;;;;-0.82;65.85;99421.06;5008960;28;20301;-80
2021/03/06 00:45:18;;;;;;;5.07;3.70;;;;;;;-0.86;65.77;99416.69;5004080;28;20738;-80
2021/03/06 00:47:44;;;;;;;5.93;4.47;;;;;;;-0.85;65.69;99415.84;5004913;28;20246;-80
2021/03/06 00:50:13;;;;;;;5.93;3.67;;;;;;;-0.81;65.93;99414.25;5005739;28;20264;-80
2021/03/06 00:52:43;;;;;;;5.07;3.97;;;;;;;-0.81;65.71;99427.06;5001264;28;20265;-81
2021/03/06 00:55:10;;;;;;;6.83;3.40;;;;;;;-0.92;66.56;99428.47;5004850;28;20238;-81
2021/03/06 00:57:36;;;;;;;5.43;3.80;;;;;;;-0.94;66.64;99419.88;5006052;28;20239;-81
2021/03/06 01:00:03;;;;;;;4.67;3.30;;;;;;;-0.89;66.23;99418.31;5003624;28;20756;-81
2021/03/06 01:02:29;;;;;;;5.40;3.63;;;;;;;-0.88;66.37;99414.91;5003125;28;20349;-82
2021/03/06 01:04:55;;;;;;;7.53;4.37;;;;;;;-0.86;66.25;99406.44;5003941;28;20869;-81
2021/03/06 01:07:21;;;;;;;7.23;3.60;;;;;;;-0.85;66.14;99410.72;5004337;28;20696;-80
2021/03/06 01:09:48;;;;;;;5.20;3.47;;;;;;;-0.88;66.33;99414.91;5004353;28;20214;-82
2021/03/06 01:12:14;;;;;;;7.00;3.60;;;;;;;-0.92;66.23;99420.78;5004364;28;20284;-81
2021/03/06 01:14:40;;;;;;;6.47;3.47;;;;;;;-0.90;65.99;99406.31;5003633;28;20674;-81
2021/03/06 01:17:06;;;;;;;6.10;3.90;;;;;;;-0.90;65.79;99406.31;5007853;28;20222;-81
2021/03/06 01:19:32;;;;;;;6.03;3.50;;;;;;;-0.89;66.29;99402.94;5001673;28;20211;-81
2021/03/06 01:21:59;;;;;;;6.33;4.07;;;;;;;-0.87;65.63;99396.16;5009942;28;20431;-80
2021/03/06 01:24:25;;;;;;;6.80;4.23;;;;;;;-0.87;66.25;99401.28;5009443;28;20210;-82
2021/03/06 01:26:52;;;;;;;6.63;4.00;;;;;;;-0.83;65.70;99405.66;5009923;28;20906;-82
2021/03/06 01:29:18;;;;;;;6.87;3.87;;;;;;;-0.82;65.72;99397.16;5005340;28;20209;-82
2021/03/06 01:31:44;;;;;;;6.07;3.80;;;;;;;-0.81;65.77;99404.00;5008188;28;21137;-81
2021/03/06 01:34:10;;;;;;;7.70;4.20;;;;;;;-0.82;65.64;99399.72;5012556;28;20341;-80
2021/03/06 01:36:36;;;;;;;6.97;4.13;;;;;;;-0.87;65.91;99394.44;5010616;28;20216;-81
2021/03/06 01:39:03;;;;;;;8.27;4.07;;;;;;;-0.86;65.86;99397.91;5011567;28;20688;-82
2021/03/06 01:41:29;;;;;;;6.97;4.00;;;;;;;-0.90;66.16;99401.19;5013114;28;20258;-82
2021/03/06 01:43:59;;;;;;;6.87;3.97;;;;;;;-0.90;65.79;99401.19;5010383;28;20217;-80
2021/03/06 01:46:25;;;;;;;4.63;3.37;;;;;;;-0.88;65.88;99397.84;5009440;28;20218;-80
2021/03/06 01:48:51;;;;;;;4.83;3.33;;;;;;;-0.95;66.18;99395.09;5010654;28;20214;-81
2021/03/06 01:51:17;;;;;;;5.37;3.77;;;;;;;-1.03;66.31;99388.06;5009891;28;20239;-82
2021/03/06 01:53:43;;;;;;;6.27;3.47;;;;;;;-1.03;66.27;99400.88;5010743;28;20221;-81
2021/03/06 01:56:09;;;;;;;5.63;3.60;;;;;;;-1.06;66.22;99392.22;5011701;28;20280;-81
2021/03/06 01:58:35;;;;;;;5.63;3.47;;;;;;;-1.05;65.95;99393.94;5007468;28;20697;-82
2021/03/06 02:01:02;;;;;;;9.50;3.70;;;;;;;-1.03;66.09;99385.50;5005494;28;20330;-82
2021/03/06 02:03:29;;;;;;;7.40;3.90;;;;;;;-1.04;66.02;99393.13;5008980;28;20709;-82
2021/03/06 02:05:55;;;;;;;4.83;4.00;;;;;;;-1.11;65.92;99399.78;5008696;28;20273;-79
2021/03/06 02:08:21;;;;;;;6.33;4.30;;;;;;;-1.18;65.99;99395.28;5010089;28;20230;-81
2021/03/06 02:10:47;;;;;;;6.70;4.10;;;;;;;-1.19;65.94;99398.69;5009073;28;20226;-80
2021/03/06 02:13:28;;;;;;;6.37;3.60;;;;;;;-1.19;66.03;99396.13;5009191;28;20272;-80
2021/03/06 02:16:06;;;;;;;6.33;3.73;;;;;;;-1.17;65.76;99394.50;5008402;28;20234;-80
2021/03/06 02:18:37;;;;;;;6.40;3.93;;;;;;;-1.22;65.86;99393.47;5009344;28;20241;-81
2021/03/06 02:21:07;;;;;;;9.17;3.37;;;;;;;-1.28;65.82;99389.06;5007083;28;20236;-81
2021/03/06 02:23:51;;;;;;;5.03;3.23;;;;;;;-1.35;65.62;99389.69;5008127;28;20211;-81
2021/03/06 02:26:23;;;;;;;8.03;3.30;;;;;;;-1.53;66.09;99402.81;5005399;28;20210;-81
2021/03/06 02:28:56;;;;;;;5.33;3.07;;;;;;;-1.53;66.53;99392.59;5005274;28;20298;-80
2021/03/06 02:31:23;;;;;;;6.53;3.67;;;;;;;-1.48;66.19;99403.84;5007044;28;20234;-80
2021/03/06 02:33:57;;;;;;;7.13;3.67;;;;;;;-1.47;66.37;99413.25;5005804;28;20220;-80
2021/03/06 02:36:24;;;;;;;4.93;3.37;;;;;;;-1.47;66.64;99407.25;5007090;28;21055;-81
2021/03/06 02:38:51;;;;;;;5.77;3.10;;;;;;;-1.46;66.30;99398.75;5007883;28;20216;-80
2021/03/06 02:41:59;;;;;;;7.50;3.60;;;;;;;-1.40;66.35;99410.06;5112281;27;20546;-81
2021/03/06 02:44:26;;;;;;;4.63;3.07;;;;;;;-1.39;66.39;99409.22;5106212;27;20233;-82
2021/03/06 02:46:52;;;;;;;7.23;3.50;;;;;;;-1.38;66.32;99400.72;5106316;27;20209;-82
2021/03/06 02:49:18;;;;;;;5.07;3.30;;;;;;;-1.40;66.42;99404.06;5107128;27;21082;-82
2021/03/06 02:51:47;;;;;;;7.63;3.97;;;;;;;-1.38;66.32;99410.97;5106036;27;20917;-81
2021/03/06 02:54:13;;;;;;;8.63;3.90;;;;;;;-1.36;66.00;99405.88;5106414;27;20757;-83
2021/03/06 02:56:39;;;;;;;5.77;3.80;;;;;;;-1.34;66.00;99408.47;5106051;27;20248;-82
2021/03/06 02:59:39;;;;;;;4.40;2.97;;;;;;;-1.36;65.88;99417.00;5111569;27;20265;-82
2021/03/06 03:02:16;;;;;;;6.27;3.43;;;;;;;-1.39;66.09;99416.03;5102378;28;20331;-81
2021/03/06 03:04:48;;;;;;;7.00;3.50;;;;;;;-1.39;66.21;99409.22;5103690;28;20835;-81
2021/03/06 03:07:19;;;;;;;6.73;3.53;;;;;;;-1.39;66.57;99410.91;5102238;27;20257;-80
2021/03/06 03:09:47;;;;;;;7.60;3.57;;;;;;;-1.38;66.18;99412.63;5110329;27;20842;-81
2021/03/06 03:12:14;;;;;;;6.00;3.47;;;;;;;-1.40;65.87;99404.94;5105082;27;20224;-81
2021/03/06 03:14:47;;;;;;;7.10;3.23;;;;;;;-1.42;66.29;99404.00;5105822;27;20220;-80
2021/03/06 03:17:15;;;;;;;5.90;3.37;;;;;;;-1.45;66.51;99401.38;5104519;27;20748;-80
2021/03/06 03:19:44;;;;;;;7.83;3.43;;;;;;;-1.46;66.11;99404.75;5103463;28;20698;-82
2021/03/06 03:22:10;;;;;;;5.73;3.40;;;;;;;-1.46;66.62;99404.75;5104793;28;20235;-82
2021/03/06 03:24:38;;;;;;;7.07;3.47;;;;;;;-1.46;66.31;99419.25;5104832;28;20239;-81
2021/03/06 03:27:06;;;;;;;7.07;3.63;;;;;;;-1.51;66.58;99416.53;5101243;28;20711;-82
2021/03/06 03:29:33;;;;;;;6.63;3.60;;;;;;;-1.54;66.84;99411.34;5101761;27;20303;-81
2021/03/06 03:32:00;;;;;;;5.20;3.40;;;;;;;-1.57;66.75;99411.22;5104447;27;20748;-81
2021/03/06 03:34:27;;;;;;;6.40;3.40;;;;;;;-1.61;66.93;99409.41;5107233;27;20203;-81
2021/03/06 03:36:53;;;;;;;9.90;4.00;;;;;;;-1.65;66.98;99408.44;5111908;27;20205;-81
2021/03/06 03:39:20;;;;;;;6.73;3.10;;;;;;;-1.69;66.25;99400.63;5104050;27;20727;-81
2021/03/06 03:41:47;;;;;;;5.43;3.27;;;;;;;-1.72;66.18;99405.66;5101282;27;20239;-82
2021/03/06 03:44:15;;;;;;;6.60;3.10;;;;;;;-1.76;66.59;99407.25;5104664;27;20696;-81
2021/03/06 03:46:41;;;;;;;6.73;3.70;;;;;;;-1.76;66.15;99408.13;5105506;27;20208;-82
2021/03/06 03:49:13;;;;;;;6.50;3.17;;;;;;;-1.79;66.19;99402.03;5104574;27;20216;-81
2021/03/06 03:51:40;;;;;;;6.17;2.70;;;;;;;-1.84;66.23;99412.16;5096236;28;20233;-81
2021/03/06 03:54:06;;;;;;;6.83;3.37;;;;;;;-1.87;66.15;99406.06;5091962;27;20715;-81
2021/03/06 03:56:34;;;;;;;5.87;3.37;;;;;;;-1.94;66.23;99407.56;5095868;27;20213;-82
2021/03/06 03:59:00;;;;;;;7.60;3.03;;;;;;;-1.95;66.61;99408.34;5088295;28;20863;-82
2021/03/06 04:01:27;;;;;;;6.07;2.77;;;;;;;-1.95;66.58;99408.34;5091605;27;20232;-82
2021/03/06 04:03:53;;;;;;;7.47;3.30;;;;;;;-1.94;66.54;99415.22;5095754;27;20207;-81
2021/03/06 04:06:20;;;;;;;8.30;3.50;;;;;;;-1.98;66.38;99409.13;5091759;27;20260;-81
2021/03/06 04:08:46;;;;;;;6.80;2.93;;;;;;;-2.00;66.19;99415.03;5091048;28;20222;-81
2021/03/06 04:11:12;;;;;;;6.30;3.30;;;;;;;-2.03;66.12;99412.38;5091846;27;20219;-81
2021/03/06 04:13:38;;;;;;;6.47;3.50;;;;;;;-2.07;66.66;99415.66;5090791;28;20256;-81
2021/03/06 04:16:06;;;;;;;4.93;2.77;;;;;;;-2.06;66.58;99415.72;5094298;27;20824;-83
2021/03/06 04:18:32;;;;;;;6.93;3.00;;;;;;;-2.02;66.87;99414.09;5089603;28;20213;-81
2021/03/06 04:20:59;;;;;;;6.23;3.20;;;;;;;-2.03;66.79;99409.81;5085936;28;20236;-82
2021/03/06 04:23:26;;;;;;;5.93;2.77;;;;;;;-2.03;67.31;99410.69;5086740;27;20303;-81
2021/03/06 04:25:52;;;;;;;4.20;3.17;;;;;;;-2.02;66.51;99419.19;5093206;27;20258;-82
2021/03/06 04:30:27;;;;;;;6.03;3.10;;;;;;;-2.02;66.65;99406.41;5130203;22;20542;-81
2021/03/06 04:32:56;;;;;;;5.77;2.80;;;;;;;-2.02;67.44;99407.31;5037134;28;20260;-81
2021/03/06 04:35:22;;;;;;;3.93;2.73;;;;;;;-2.00;66.34;99404.81;5034145;28;20228;-83
2021/03/06 04:37:48;;;;;;;7.10;3.07;;;;;;;-2.01;66.94;99408.16;5037198;28;20263;-82
2021/03/06 04:40:17;;;;;;;3.93;2.60;;;;;;;-2.00;67.00;99409.94;5036858;28;20218;-81
2021/03/06 04:42:43;;;;;;;4.90;2.93;;;;;;;-2.05;67.08;99408.91;5025160;28;20218;-81
2021/03/06 04:45:10;;;;;;;5.33;3.13;;;;;;;-2.10;66.53;99415.53;5022223;28;20223;-81
2021/03/06 04:47:58;;;;;;;5.53;2.67;;;;;;;-2.08;66.53;99416.47;5112594;27;20609;-82
2021/03/06 04:50:24;;;;;;;5.27;2.70;;;;;;;-2.08;67.07;99416.47;5105282;28;20739;-80
2021/03/06 04:52:52;;;;;;;5.10;2.90;;;;;;;-2.21;66.86;99421.16;5106008;28;20210;-83
2021/03/06 04:55:19;;;;;;;6.07;2.70;;;;;;;-2.21;66.94;99426.28;5104931;28;20204;-80
2021/03/06 04:57:48;;;;;;;6.23;2.90;;;;;;;-2.28;66.79;99423.47;5106045;28;20203;-79
2021/03/06 05:00:15;;;;;;;5.03;2.93;;;;;;;-2.32;66.87;99417.41;5103496;28;20331;-81
2021/03/06 05:02:41;;;;;;;6.87;2.77;;;;;;;-2.38;67.55;99417.19;5105956;28;20248;-80
2021/03/06 05:05:09;;;;;;;5.50;3.07;;;;;;;-2.36;66.49;99420.66;5104761;27;20216;-81
2021/03/06 05:07:36;;;;;;;5.73;2.67;;;;;;;-2.36;67.61;99415.56;5107421;28;20301;-79
2021/03/06 05:10:03;;;;;;;5.10;2.63;;;;;;;-2.37;66.43;99424.03;5106202;27;20211;-80
2021/03/06 05:12:32;;;;;;;5.23;3.13;;;;;;;-2.39;67.51;99421.44;5105084;27;20656;-81
2021/03/06 05:14:58;;;;;;;4.27;2.93;;;;;;;-2.39;66.85;99416.34;5105549;28;20214;-81
2021/03/06 05:17:27;;;;;;;5.43;3.40;;;;;;;-2.35;67.51;99428.41;5107899;28;20204;-80
2021/03/06 05:19:53;;;;;;;6.93;3.00;;;;;;;-2.33;66.57;99420.78;5106133;28;20214;-80
2021/03/06 05:22:20;;;;;;;8.30;3.40;;;;;;;-2.31;66.94;99419.16;5095810;22;20606;-80
2021/03/06 05:24:48;;;;;;;5.13;3.03;;;;;;;-2.31;67.34;99416.59;5084598;28;20216;-80
2021/03/06 05:27:14;;;;;;;6.47;3.00;;;;;;;-2.33;67.11;99416.53;5082015;28;20247;-81
2021/03/06 05:29:40;;;;;;;4.87;3.07;;;;;;;-2.33;67.09;99420.78;5080101;28;20212;-82
2021/03/06 05:32:07;;;;;;;8.50;3.20;;;;;;;-2.34;66.68;99424.16;5080479;28;20243;-80
2021/03/06 05:34:36;;;;;;;4.30;3.00;;;;;;;-2.39;67.35;99425.66;5079797;28;20212;-81
2021/03/06 05:37:03;;;;;;;5.53;2.80;;;;;;;-2.42;67.19;99426.44;5077398;28;20822;-81
2021/03/06 05:39:30;;;;;;;5.57;2.77;;;;;;;-2.41;67.08;99434.97;5075029;28;20205;-82
2021/03/06 05:41:58;;;;;;;7.60;3.40;;;;;;;-2.43;66.88;99436.63;5070986;28;20228;-82
2021/03/06 05:44:27;;;;;;;4.60;3.33;;;;;;;-2.49;67.29;99438.97;5076498;28;20205;-80
2021/03/06 05:46:56;;;;;;;6.50;3.50;;;;;;;-2.55;66.54;99425.16;5074919;28;20281;-81
2021/03/06 05:49:24;;;;;;;6.17;3.10;;;;;;;-2.55;67.47;99429.41;5077077;28;20204;-82
2021/03/06 05:51:50;;;;;;;5.93;3.30;;;;;;;-2.56;66.57;99428.53;5077654;28;20731;-80
2021/03/06 05:54:17;;;;;;;6.23;3.60;;;;;;;-2.58;67.08;99436.97;5075958;28;20217;-81
2021/03/06 05:56:44;;;;;;;4.77;3.33;;;;;;;-2.63;66.33;99435.94;5078764;28;20683;-83
2021/03/06 05:59:12;;;;;;;7.03;3.20;;;;;;;-2.65;66.52;99437.56;5064115;28;20213;-80
2021/03/06 06:01:39;;;;;;;7.43;3.67;;;;;;;-2.73;66.99;99439.84;5059998;28;20237;-80
2021/03/06 06:04:06;;;;;;;4.63;3.23;;;;;;;-2.79;66.72;99437.09;5054083;28;20695;-81
2021/03/06 06:06:33;;;;;;;6.00;3.27;;;;;;;-2.82;66.20;99436.97;5064799;28;20230;-79
2021/03/06 06:09:01;;;;;;;5.03;3.00;;;;;;;-2.83;66.33;99438.66;5060727;28;20590;-80
2021/03/06 06:11:28;;;;;;;6.33;3.23;;;;;;;-2.84;66.00;99447.13;5068150;28;20221;-80
2021/03/06 06:13:55;;;;;;;7.97;3.00;;;;;;;-2.84;66.08;99452.25;5067278;28;20289;-81
2021/03/06 06:16:24;;;;;;;6.17;2.90;;;;;;;-2.83;65.97;99454.00;5066434;28;20209;-81
2021/03/06 06:18:50;;;;;;;6.57;3.20;;;;;;;-2.83;66.05;99451.44;5065204;28;20213;-81
2021/03/06 06:21:39;;;;;;;8.33;4.70;;;;;;;-2.84;65.59;99456.50;5061811;28;20355;-81
2021/03/06 06:24:06;;;;;;;8.63;4.43;;;;;;;-2.79;66.83;99460.94;5064670;28;20213;-80
2021/03/06 06:26:35;;;;;;;8.13;4.10;;;;;;;-2.72;65.77;99454.34;5068294;28;20239;-80
2021/03/06 06:29:03;;;;;;;6.23;3.90;;;;;;;-2.68;66.24;99469.00;5065296;28;20229;-82
2021/03/06 06:31:29;;;;;;;5.60;4.07;;;;;;;-2.69;65.95;99467.25;5064505;28;20321;-81
2021/03/06 06:33:55;;;;;;;6.50;3.87;;;;;;;-2.77;67.59;99473.78;5058464;28;20205;-80
2021/03/06 06:36:35;;;;;;;12.00;4.67;;;;;;;-2.80;67.35;99468.53;5065041;28;20745;-80
2021/03/06 06:39:03;;;;;;;7.40;4.10;;;;;;;-2.77;67.63;99469.53;5065955;28;20236;-80
2021/03/06 06:41:49;;;;;;;9.63;4.60;;;;;;;-2.79;67.38;99477.97;5065981;28;20328;-81
2021/03/06 06:44:16;;;;;;;7.40;4.70;;;;;;;-2.69;67.16;99474.91;5066275;28;20213;-81
2021/03/06 06:46:42;;;;;;;6.03;4.00;;;;;;;-2.65;67.13;99486.97;5062368;28;20225;-82
2021/03/06 06:49:08;;;;;;;5.17;4.10;;;;;;;-2.63;66.54;99490.47;5049103;28;20225;-80
2021/03/06 06:51:34;;;;;;;7.53;4.40;;;;;;;-2.56;66.76;99489.84;5065713;28;20233;-81
2021/03/06 06:54:11;;;;;;;7.20;4.53;;;;;;;-2.50;66.48;99491.75;5062862;28;20645;-80
2021/03/06 06:56:37;;;;;;;9.13;4.80;;;;;;;-2.44;66.95;99494.53;5062800;28;20209;-80
2021/03/06 06:59:04;;;;;;;10.13;4.13;;;;;;;-2.40;66.53;99495.50;5061346;28;20202;-81
2021/03/06 07:01:32;;;;;;;7.63;3.77;;;;;;;-2.39;67.10;99497.22;5058831;28;20245;-80
2021/03/06 07:04:02;;;;;;;6.33;3.80;;;;;;;-2.43;68.39;99500.50;5062097;28;20221;-81
2021/03/06 07:06:28;;;;;;;9.03;3.73;;;;;;;-2.43;68.06;99497.94;5066817;28;20235;-83
2021/03/06 07:09:04;;;;;;;6.43;3.17;;;;;;;-2.41;68.16;99506.53;5061413;28;20239;-80
2021/03/06 07:11:30;;;;;;;5.10;3.43;;;;;;;-2.40;68.48;99510.84;5065375;28;20240;-81
2021/03/06 07:13:57;;;;;;;6.33;3.87;;;;;;;-2.33;68.82;99507.69;5056265;28;20320;-82
2021/03/06 07:16:23;;;;;;;5.30;3.17;;;;;;;-2.30;68.77;99509.47;5061891;28;20205;-80
2021/03/06 07:18:59;;;;;;;5.47;3.00;;;;;;;-2.23;70.24;99503.75;5063055;28;20209;-80
2021/03/06 07:21:26;;;;;;;6.40;3.27;;;;;;;-2.13;68.86;99505.81;5061747;28;20255;-81
2021/03/06 07:23:52;;;;;;;5.07;3.20;;;;;;;-2.06;69.94;99501.75;5063291;28;20733;-80
2021/03/06 07:26:18;;;;;;;6.40;3.37;;;;;;;-1.95;69.76;99505.53;5064686;28;20261;-80
2021/03/06 07:28:47;;;;;;;6.03;3.13;;;;;;;-1.84;68.82;99508.44;5060525;28;20225;-80
2021/03/06 07:31:15;;;;;;;7.73;3.33;;;;;;;-1.77;69.65;99506.13;5057138;28;20241;-80
2021/03/06 07:33:46;;;;;;;6.30;3.37;;;;;;;-1.68;68.82;99513.25;5061916;28;20697;-80
2021/03/06 07:36:12;;;;;;;4.70;3.47;;;;;;;-1.64;69.37;99511.66;5062914;28;20340;-81
2021/03/06 07:38:39;;;;;;;5.30;3.23;;;;;;;-1.55;69.53;99515.38;5064454;28;20219;-81
2021/03/06 07:41:06;;;;;;;6.70;3.47;;;;;;;-1.52;69.61;99512.06;5066107;28;20237;-82
2021/03/06 07:43:35;;;;;;;7.17;3.80;;;;;;;-1.45;69.90;99506.31;5060198;28;20304;-83
2021/03/06 07:46:02;;;;;;;4.33;3.30;;;;;;;-1.38;69.88;99510.81;5066165;28;20305;-82
2021/03/06 07:48:33;;;;;;;6.27;3.17;;;;;;;-1.29;69.79;99519.56;5064774;28;20210;-83
2021/03/06 07:50:59;;;;;;;6.83;3.50;;;;;;;-1.19;69.17;99516.47;5067157;28;20733;-83
2021/03/06 07:53:27;;;;;;;6.70;4.03;;;;;;;-1.09;69.12;99518.47;5068382;28;20221;-84
2021/03/06 07:55:53;;;;;;;4.90;3.37;;;;;;;-0.98;68.61;99521.38;5065157;28;20270;-84
2021/03/06 07:58:20;;;;;;;6.17;3.27;;;;;;;-0.89;69.20;99525.91;5065418;28;20350;-83
2021/03/06 08:00:48;;;;;;;4.10;2.90;;;;;;;-0.87;69.42;99524.25;5064047;28;20358;-84
2021/03/06 08:03:37;;;;;;;7.03;3.60;;;;;;;-0.78;69.45;99516.81;5064984;28;20213;-84
2021/03/06 08:06:04;;;;;;;5.57;3.30;;;;;;;-0.68;68.63;99521.41;5066508;28;20222;-82
2021/03/06 08:09:00;;;;;;;5.67;3.03;;;;;;;-0.55;69.71;99517.50;5065277;28;20217;-84
2021/03/06 08:11:36;;;;;;;5.57;3.37;;;;;;;-0.39;68.50;99518.75;5061746;28;20232;-83
2021/03/06 08:14:06;;;;;;;6.47;3.70;;;;;;;-0.27;68.88;99513.97;5064363;28;20205;-81
2021/03/06 08:16:41;;;;;;;5.33;3.33;;;;;;;-0.09;68.33;99517.84;5065330;28;20217;-81
2021/03/06 08:19:25;;;;;;;7.03;2.93;;;;;;;0.01;66.38;99514.69;5064018;28;20269;-81
2021/03/06 08:21:53;;;;;;;4.83;3.13;;;;;;;0.15;66.81;99513.34;5061345;28;20237;-80
2021/03/06 08:24:30;;;;;;;7.80;3.17;;;;;;;0.32;67.15;99512.91;5062028;28;20213;-80
2021/03/06 08:27:14;;;;;;;6.17;3.47;;;;;;;0.48;66.86;99504.72;5061625;28;20303;-81
2021/03/06 08:29:41;;;;;;;9.00;3.37;;;;;;;0.62;66.01;99504.19;5062802;28;20220;-80
2021/03/06 08:32:08;;;;;;;5.63;2.80;;;;;;;0.74;65.91;99502.75;5063556;28;20229;-79
2021/03/06 08:34:35;;;;;;;5.33;3.43;;;;;;;0.86;66.03;99502.16;5064055;28;20209;-78
2021/03/06 08:37:36;;;;;;;4.80;3.13;;;;;;;0.96;65.56;99511.81;5060290;28;20225;-79
2021/03/06 08:40:17;;;;;;;4.97;3.30;;;;;;;1.05;65.46;99510.25;5056769;28;20209;-79
2021/03/06 08:42:47;;;;;;;5.37;3.17;;;;;;;1.11;64.70;99503.56;5056132;28;20237;-80
2021/03/06 08:45:16;;;;;;;5.00;2.90;;;;;;;1.26;64.85;99508.16;5054897;28;20205;-82
2021/03/06 08:47:43;;;;;;;4.77;2.97;;;;;;;1.39;63.79;99505.81;5055866;28;20996;-81
2021/03/06 08:50:11;;;;;;;5.07;3.10;;;;;;;1.55;63.46;99507.88;5056058;28;20213;-81
2021/03/06 08:52:39;;;;;;;5.37;2.93;;;;;;;1.71;63.42;99499.59;5053551;28;20225;-79
2021/03/06 08:55:06;;;;;;;4.60;2.83;;;;;;;1.89;62.78;99508.47;5057351;28;20673;-83
2021/03/06 08:57:35;;;;;;;5.70;2.93;;;;;;;2.08;62.07;99514.84;5065809;28;20201;-82
2021/03/06 09:00:06;;;;;;;4.17;2.60;;;;;;;2.21;61.65;99505.63;5066380;28;20339;-79
2021/03/06 09:02:34;;;;;;;4.47;2.87;;;;;;;2.42;60.91;99505.94;5064224;28;20225;-82
2021/03/06 09:05:06;;;;;;;4.40;2.67;;;;;;;2.63;59.73;99509.72;5064910;28;20216;-80
2021/03/06 09:07:34;;;;;;;4.10;2.80;;;;;;;2.76;59.38;99505.59;5062479;28;20294;-80
2021/03/06 09:10:27;;;;;;;4.03;2.97;;;;;;;2.91;57.10;99504.97;5064391;28;20682;-81
2021/03/06 09:12:55;;;;;;;3.77;2.60;;;;;;;3.09;58.24;99507.81;5066540;28;20721;-82
2021/03/06 09:15:30;;;;;;;5.50;2.87;;;;;;;3.23;57.44;99495.94;5064269;28;20289;-87
2021/03/06 09:17:57;;;;;;;5.20;2.57;;;;;;;3.33;57.07;99503.78;5064435;28;20208;-86
2021/03/06 09:20:24;;;;;;;5.03;2.87;;;;;;;3.54;56.45;99495.44;5064701;28;20705;-86
2021/03/06 09:22:51;;;;;;;5.27;2.93;;;;;;;3.67;55.47;99499.88;5065742;28;20215;-85
2021/03/06 09:25:31;;;;;;;3.60;2.30;;;;;;;3.84;52.33;99493.19;5062999;28;20923;-85
2021/03/06 09:27:59;;;;;;;4.27;3.10;;;;;;;4.03;54.05;99494.22;5064463;28;20213;-87
2021/03/06 09:30:27;;;;;;;3.90;2.73;;;;;;;4.10;52.47;99484.84;5064440;28;20207;-85
2021/03/06 09:32:53;;;;;;;2.83;2.40;;;;;;;4.28;52.12;99491.00;5066983;28;20370;-86
2021/03/06 09:35:20;;;;;;;4.55;2.45;;;;;;;4.44;51.56;99490.25;5068213;28;20260;-85
2021/03/06 09:37:46;;;;;;;5.07;2.80;;;;;;;4.60;51.14;99486.94;5063039;28;20198;-86
2021/03/06 09:40:21;;;;;;;3.67;2.58;;;;;;;4.69;48.07;99485.25;5071142;28;20274;-81
2021/03/06 09:42:51;;;;;;;3.15;2.40;;;;;;;4.91;50.63;99481.13;5066420;28;20240;-81
2021/03/06 09:45:18;;;;;;;3.35;2.22;;;;;;;5.02;49.82;99479.44;5063604;28;20213;-87
2021/03/06 09:47:44;;;;;;;4.07;2.88;;;;;;;5.12;49.78;99483.78;5062500;28;20237;-84
2021/03/06 09:50:12;;;;;;;4.47;2.85;;;;;;;5.37;49.69;99481.31;5063597;28;20987;-81
2021/03/06 09:52:38;;;;;;;4.32;2.90;;;;;;;5.62;48.56;99476.22;5065052;28;20230;-83
2021/03/06 09:55:17;;;;;;;3.20;2.75;;;;;;;5.77;47.68;99476.22;5068603;28;20210;-84
2021/03/06 09:57:43;;;;;;;3.65;2.30;;;;;;;5.76;47.96;99477.13;5064479;28;20197;-81
2021/03/06 10:00:22;;;;;;;3.17;2.45;;;;;;;5.91;48.60;99476.28;5068446;28;20265;-79
2021/03/06 10:02:51;;;;;;;4.70;2.80;;;;;;;6.04;47.69;99479.78;5065549;28;20232;-82
2021/03/06 10:05:22;;;;;;;3.40;2.40;;;;;;;6.14;46.87;99478.94;5063501;28;20217;-81
2021/03/06 10:07:49;;;;;;;3.60;2.33;;;;;;;6.22;47.16;99484.97;5061803;28;21047;-85
2021/03/06 10:10:16;;;;;;;3.78;2.13;;;;;;;6.40;46.62;99483.25;5063564;28;20700;-82
2021/03/06 10:12:44;;;;;;;5.00;2.88;;;;;;;6.58;46.05;99480.66;5070372;28;20233;-83
2021/03/06 10:15:12;;;;;;;3.90;2.67;;;;;;;6.62;45.30;99477.19;5070339;28;20216;-83
2021/03/06 10:17:39;;;;;;;4.20;2.78;;;;;;;6.78;45.22;99474.56;5061909;28;20946;-82
2021/03/06 10:20:07;;;;;;;4.05;2.80;;;;;;;6.89;44.95;99475.38;5077882;28;20220;-86
2021/03/06 10:22:44;;;;;;;4.32;2.55;;;;;;;7.07;44.64;99477.91;5079655;28;20228;-83
2021/03/06 10:25:12;;;;;;;4.55;2.95;;;;;;;7.13;44.59;99477.94;5080311;28;20272;-85
2021/03/06 10:27:39;;;;;;;5.82;2.90;;;;;;;7.28;44.32;99477.00;5081770;28;20237;-84
2021/03/06 10:30:14;;;;;;;3.92;2.83;;;;;;;7.42;43.59;99471.72;5068670;28;20201;-83
2021/03/06 10:32:42;;;;;;;3.60;2.80;;;;;;;7.65;43.71;99478.56;5068323;28;20232;-82
2021/03/06 10:35:33;;;;;;;3.80;2.30;;;;;;;7.78;42.74;99479.34;5067387;28;20260;-81
2021/03/06 10:38:00;;;;;;;3.00;2.30;;;;;;;7.91;43.20;99468.84;5074041;28;20202;-82
2021/03/06 10:40:46;;;;;;;4.45;2.40;;;;;;;8.10;42.25;99473.94;5067584;28;20201;-82
2021/03/06 10:43:27;;;;;;;4.95;2.30;;;;;;;8.18;41.10;99477.34;5067548;28;20236;-82
2021/03/06 10:45:53;;;;;;;3.03;2.35;;;;;;;8.08;40.86;99470.47;5068990;28;20215;-82
2021/03/06 10:48:31;;;;;;;4.57;2.35;;;;;;;8.27;40.71;99471.19;5079113;28;20228;-82
2021/03/06 10:50:58;;;;;;;2.83;1.92;;;;;;;8.44;39.06;99463.31;5072496;28;20232;-83
2021/03/06 10:53:25;;;;;;;2.95;1.90;;;;;;;8.45;39.41;99465.91;5068689;28;20209;-84
2021/03/06 10:55:52;;;;;;;3.30;2.00;;;;;;;8.52;39.79;99458.88;5077114;28;20305;-83
2021/03/06 10:58:19;;;;;;;3.17;2.00;;;;;;;8.77;39.17;99453.47;5069722;28;20297;-86
2021/03/06 11:00:50;;;;;;;2.63;2.03;;;;;;;8.83;39.09;99451.63;5069629;28;20671;-85
2021/03/06 11:03:18;;;;;;;2.58;1.92;;;;;;;9.04;39.19;99454.88;5068773;28;20208;-85
2021/03/06 11:05:45;;;;;;;4.32;2.58;;;;;;;9.25;36.64;99443.34;5071314;28;20218;-83
2021/03/06 11:08:17;;;;;;;2.50;2.00;;;;;;;9.16;38.09;99443.47;5068428;28;20225;-85
2021/03/06 11:10:45;;;;;;;2.90;2.30;;;;;;;9.34;38.25;99445.84;5072602;28;20259;-84
2021/03/06 11:13:12;;;;;;;3.17;2.30;;;;;;;9.41;37.44;99438.78;5068586;28;20257;-85
2021/03/06 11:15:46;;;;;;;2.95;2.30;;;;;;;9.40;36.31;99453.56;5066213;28;20204;-85
2021/03/06 11:18:12;;;;;;;3.25;2.45;;;;;;;9.47;37.05;99443.09;5068705;28;20806;-85
2021/03/06 11:20:39;;;;;;;2.88;2.00;;;;;;;9.62;37.12;99442.88;5070476;28;20209;-85
2021/03/06 11:24:11;;;;;;;3.10;2.00;;;;;;;9.85;36.23;99434.69;5113991;27;20511;-85
2021/03/06 11:26:37;;;;;;;2.10;1.40;;;;;;;9.96;37.26;99432.81;5109498;27;20214;-83
2021/03/06 11:29:03;;;;;;;2.75;2.00;;;;;;;10.01;37.08;99432.72;5099415;28;20739;-86
2021/03/06 11:31:31;;;;;;;2.88;2.10;;;;;;;9.95;35.75;99425.00;5107858;28;20407;-85
2021/03/06 11:33:57;;;;;;;2.95;1.52;;;;;;;9.98;35.47;99424.94;5112649;27;20220;-83
2021/03/06 11:36:24;;;;;;;4.10;2.20;;;;;;;10.19;36.11;99424.59;5114045;27;20211;-86
2021/03/06 11:38:50;;;;;;;3.20;2.00;;;;;;;10.20;35.25;99421.13;5111561;28;20216;-83
2021/03/06 11:41:17;;;;;;;3.15;2.30;;;;;;;10.48;35.36;99420.66;5109704;28;20236;-85
2021/03/06 11:43:43;;;;;;;1.80;1.60;;;;;;;10.66;34.35;99418.59;5111398;27;20768;-85
2021/03/06 11:46:09;;;;;;;1.70;1.40;;;;;;;10.81;34.05;99418.34;5111814;28;20215;-85
2021/03/06 11:48:35;;;;;;;4.10;1.60;;;;;;;10.62;32.16;99412.56;5110142;28;20218;-82